Time;durP1;ratioP1;P1;durP2;ratioP2;P2;SDS_P1;SDS_P2;PMS_P1;PMS_P2;Temp;Humidity;BMP_temperature;BMP_pressure;BME280_temperature;BME280_humidity;BME280_pressure;Samples;Min_cycle;Max_cycle;Signal;HPM_P1;HPM_P2
2021/10/25 00:02:15;;;;;;;;;120.00;115.00;12.40;43.30;;;;;;5095271;28;8844;-55
2021/10/25 00:04:41;;;;;;;;;121.75;116.50;12.40;43.60;;;;;;5095063;28;8768;-55
2021/10/25 00:07:07;;;;;;;;;97.00;94.25;12.30;43.60;;;;;;5095523;28;8791;-56
2021/10/25 00:09:33;;;;;;;;;98.00;94.25;12.20;43.90;;;;;;5095079;28;8886;-55
2021/10/25 00:11:59;;;;;;;;;97.50;92.25;12.30;43.60;;;;;;5095327;28;8763;-56
2021/10/25 00:14:25;;;;;;;;;95.00;89.25;12.40;43.50;;;;;;5095094;28;8748;-57
2021/10/25 00:16:51;;;;;;;;;99.50;96.75;12.40;43.30;;;;;;5095194;28;8863;-57
2021/10/25 00:19:18;;;;;;;;;110.00;105.75;12.40;43.40;;;;;;5095012;28;8772;-55
2021/10/25 00:21:44;;;;;;;;;96.75;93.00;12.40;43.30;;;;;;5094948;28;8851;-55
2021/10/25 00:24:11;;;;;;;;;111.50;108.75;12.30;43.30;;;;;;5077037;28;8772;-56
2021/10/25 00:26:37;;;;;;;;;115.50;112.50;12.30;43.10;;;;;;5095067;28;8886;-57
2021/10/25 00:29:03;;;;;;;;;119.25;113.00;12.20;43.20;;;;;;5095017;28;8763;-55
2021/10/25 00:31:29;;;;;;;;;120.00;114.25;12.20;43.40;;;;;;5094727;28;8798;-56
2021/10/25 00:33:55;;;;;;;;;120.75;116.25;12.10;43.30;;;;;;5094968;28;8752;-57
2021/10/25 00:36:21;;;;;;;;;101.25;97.50;12.10;43.70;;;;;;5094602;28;8917;-58
2021/10/25 00:38:47;;;;;;;;;109.50;109.00;12.10;43.60;;;;;;5094587;28;8820;-55
2021/10/25 00:41:13;;;;;;;;;117.75;113.00;12.10;43.50;;;;;;5094771;28;8752;-55
2021/10/25 00:43:39;;;;;;;;;125.75;120.00;12.10;43.70;;;;;;5094660;28;8768;-57
2021/10/25 00:46:07;;;;;;;;;116.50;111.50;12.10;43.60;;;;;;5094397;28;8783;-57
2021/10/25 00:48:34;;;;;;;;;102.75;101.00;12.00;43.40;;;;;;5094658;28;9437;-57
2021/10/25 00:51:00;;;;;;;;;108.75;105.50;12.00;43.40;;;;;;5094527;28;8756;-56
2021/10/25 00:53:27;;;;;;;;;94.75;90.25;12.00;43.50;;;;;;5094518;28;8768;-57
2021/10/25 00:55:53;;;;;;;;;90.00;80.25;11.90;43.50;;;;;;5094456;28;8778;-57
2021/10/25 00:58:19;;;;;;;;;89.75;80.00;11.90;43.60;;;;;;5094234;28;8906;-56
2021/10/25 01:00:45;;;;;;;;;91.50;80.75;11.90;43.60;;;;;;5094421;28;8770;-56
2021/10/25 01:03:11;;;;;;;;;87.75;76.25;11.80;43.40;;;;;;5094661;28;8792;-57
2021/10/25 01:05:37;;;;;;;;;85.50;74.00;11.80;44.00;;;;;;5094360;28;8780;-56
2021/10/25 01:08:03;;;;;;;;;79.25;65.50;11.80;44.00;;;;;;5094334;28;8767;-57
2021/10/25 01:10:30;;;;;;;;;68.25;55.50;11.70;44.10;;;;;;5094340;28;8791;-56
2021/10/25 01:12:57;;;;;;;;;74.50;61.50;11.90;43.90;;;;;;5094325;28;8831;-58
2021/10/25 01:15:24;;;;;;;;;71.50;58.00;11.90;43.70;;;;;;5094391;28;8748;-55
2021/10/25 01:17:57;;;;;;;;;68.50;56.00;11.90;43.70;;;;;;5094448;28;8820;-57
2021/10/25 01:20:24;;;;;;;;;74.50;62.00;11.90;43.60;;;;;;5094306;28;8774;-57
2021/10/25 01:22:50;;;;;;;;;71.50;59.50;11.90;43.60;;;;;;5094327;28;8752;-54
2021/10/25 01:25:16;;;;;;;;;68.00;55.50;11.80;43.50;;;;;;5094431;28;8862;-54
2021/10/25 01:27:42;;;;;;;;;75.25;62.00;11.80;43.50;;;;;;5094461;28;8825;-57
2021/10/25 01:30:08;;;;;;;;;75.25;61.75;11.80;43.60;;;;;;5094167;28;8760;-55
2021/10/25 01:32:34;;;;;;;;;80.75;65.00;11.80;43.40;;;;;;5094189;28;8771;-55
2021/10/25 01:35:00;;;;;;;;;79.00;64.00;11.80;43.30;;;;;;5094432;28;8853;-57
2021/10/25 01:37:27;;;;;;;;;69.25;57.50;11.80;43.40;;;;;;5093864;28;9497;-56
2021/10/25 01:39:53;;;;;;;;;76.50;63.00;11.80;43.50;;;;;;5094139;28;8866;-55
2021/10/25 01:42:19;;;;;;;;;75.50;61.00;11.80;43.40;;;;;;5094307;28;9588;-57
2021/10/25 01:44:45;;;;;;;;;78.00;63.75;11.70;43.50;;;;;;5093980;28;8776;-57
2021/10/25 01:47:11;;;;;;;;;75.00;61.75;11.70;43.40;;;;;;5094233;28;8798;-55
2021/10/25 01:49:37;;;;;;;;;87.00;77.25;11.60;44.00;;;;;;5092472;28;9482;-56
2021/10/25 01:52:04;;;;;;;;;85.00;73.00;11.50;44.20;;;;;;5094014;28;8869;-58
2021/10/25 01:54:30;;;;;;;;;82.50;69.75;11.50;44.40;;;;;;5094183;28;8767;-54
2021/10/25 01:56:55;;;;;;;;;88.25;75.00;11.50;44.90;;;;;;5095115;28;8780;-55
2021/10/25 01:59:21;;;;;;;;;91.00;81.50;11.40;45.70;;;;;;5097865;28;8852;-56
2021/10/25 02:01:47;;;;;;;;;88.25;77.25;11.40;45.60;;;;;;5079601;28;8779;-56
2021/10/25 02:04:13;;;;;;;;;86.75;73.50;11.40;45.00;;;;;;5097581;28;8756;-55
2021/10/25 02:06:39;;;;;;;;;81.00;65.75;11.40;44.90;;;;;;5097695;28;8937;-55
2021/10/25 02:09:05;;;;;;;;;69.25;57.50;11.50;44.80;;;;;;5097655;28;8772;-55
2021/10/25 02:11:31;;;;;;;;;82.50;69.75;11.50;45.10;;;;;;5097306;28;8779;-55
2021/10/25 02:13:57;;;;;;;;;62.50;52.50;11.50;44.80;;;;;;5097540;28;8840;-57
2021/10/25 02:16:23;;;;;;;;;68.50;57.25;11.50;44.80;;;;;;5097522;28;8768;-57
2021/10/25 02:18:49;;;;;;;;;73.50;59.00;11.40;45.10;;;;;;5097408;28;9446;-55
2021/10/25 02:21:15;;;;;;;;;75.00;60.25;11.40;44.80;;;;;;5097162;28;8825;-54
2021/10/25 02:23:41;;;;;;;;;70.75;59.25;11.10;44.90;;;;;;5097346;28;8870;-56
2021/10/25 02:26:07;;;;;;;;;75.25;62.00;11.10;45.50;;;;;;5097201;28;8756;-55
2021/10/25 02:28:34;;;;;;;;;68.00;56.00;11.20;45.80;;;;;;5097117;28;8836;-55
2021/10/25 02:31:00;;;;;;;;;71.50;59.00;10.90;46.30;;;;;;5079142;28;8799;-57
2021/10/25 02:33:26;;;;;;;;;73.00;60.25;10.80;47.00;;;;;;5097071;28;8869;-56
2021/10/25 02:35:52;;;;;;;;;71.50;60.00;10.80;46.80;;;;;;5096828;28;8818;-53
2021/10/25 02:38:18;;;;;;;;;74.75;61.50;10.80;47.10;;;;;;5097033;28;8834;-56
2021/10/25 02:40:45;;;;;;;;;87.75;76.75;10.70;47.30;;;;;;5097059;28;8790;-55
2021/10/25 02:43:11;;;;;;;;;91.25;81.25;10.80;47.50;;;;;;5096722;28;8929;-55
2021/10/25 02:45:37;;;;;;;;;89.50;79.50;10.80;47.50;;;;;;5096748;28;8851;-55
2021/10/25 02:48:05;;;;;;;;;86.00;71.50;10.80;47.70;;;;;;5096913;28;8782;-54
2021/10/25 02:50:31;;;;;;;;;68.00;57.00;10.80;47.90;;;;;;5096644;28;8790;-55
2021/10/25 02:52:56;;;;;;;;;82.75;67.75;10.80;47.70;;;;;;5096792;28;8764;-55
2021/10/25 02:55:22;;;;;;;;;79.50;64.50;10.90;47.70;;;;;;5096626;28;8760;-54
2021/10/25 02:57:48;;;;;;;;;83.00;68.25;10.80;47.40;;;;;;5096416;28;8800;-55
2021/10/25 03:00:16;;;;;;;;;77.25;63.25;10.80;47.10;;;;;;5096659;28;8764;-55
2021/10/25 03:02:44;;;;;;;;;66.25;55.75;10.70;46.70;;;;;;5096652;28;8876;-56
2021/10/25 03:05:10;;;;;;;;;74.75;60.75;10.80;47.00;;;;;;5096266;28;8825;-56
2021/10/25 03:07:36;;;;;;;;;81.00;66.00;10.70;47.10;;;;;;5095983;28;8846;-56
2021/10/25 03:10:04;;;;;;;;;80.00;65.00;10.70;46.80;;;;;;5096430;28;8748;-55
2021/10/25 03:12:30;;;;;;;;;66.00;56.00;10.70;46.30;;;;;;5096426;28;8760;-56
2021/10/25 03:14:56;;;;;;;;;67.25;56.50;10.70;46.10;;;;;;5096422;28;8756;-55
2021/10/25 03:17:22;;;;;;;;;71.50;60.00;10.70;45.60;;;;;;5096255;28;9568;-54
2021/10/25 03:19:48;;;;;;;;;81.75;65.75;10.60;45.60;;;;;;5096282;28;9517;-55
2021/10/25 03:22:14;;;;;;;;;80.75;66.00;10.60;45.80;;;;;;5096034;28;8783;-55
2021/10/25 03:24:42;;;;;;;;;86.00;71.25;10.60;46.80;;;;;;5096002;28;8776;-55
2021/10/25 03:27:09;;;;;;;;;85.25;72.00;10.60;45.80;;;;;;5095922;28;8786;-55
2021/10/25 03:29:35;;;;;;;;;81.50;64.00;10.70;45.60;;;;;;5095874;28;8882;-55
2021/10/25 03:32:01;;;;;;;;;73.75;61.25;10.70;45.90;;;;;;5096095;28;8779;-53
2021/10/25 03:34:29;;;;;;;;;77.25;62.25;10.70;46.00;;;;;;5095826;28;8771;-54
2021/10/25 03:36:55;;;;;;;;;80.00;65.00;10.70;45.90;;;;;;5095561;28;8815;-56
2021/10/25 03:39:26;;;;;;;;;79.75;65.75;10.60;45.50;;;;;;5090761;28;8827;-55
2021/10/25 03:41:55;;;;;;;;;86.75;73.50;10.60;45.60;;;;;;5083653;28;8779;-53
2021/10/25 03:44:26;;;;;;;;;78.25;65.00;10.60;45.80;;;;;;5086428;28;9006;-55
2021/10/25 03:46:57;;;;;;;;;81.75;65.50;10.60;45.70;;;;;;5075313;28;8762;-55
2021/10/25 03:51:55;;;;;;;;;67.00;55.50;10.60;45.20;;;;;;5075285;28;8781;-54
2021/10/25 03:54:33;;;;;;;;;64.00;54.75;10.60;45.00;;;;;;5075201;28;8790;-55
2021/10/25 03:59:36;;;;;;;;;51.50;45.50;10.50;44.90;;;;;;5075394;28;8905;-55
2021/10/25 04:13:28;;;;;;;;;67.00;56.50;10.40;46.60;;;;;;5074967;28;8738;-55
2021/10/25 04:29:18;;;;;;;;;78.50;64.50;10.30;49.00;;;;;;5074668;28;8793;-56
2021/10/25 04:31:44;;;;;;;;;75.25;61.75;10.30;48.80;;;;;;5074586;28;8758;-53
2021/10/25 04:34:10;;;;;;;;;76.00;62.25;10.40;48.80;;;;;;5074756;28;8766;-53
2021/10/25 04:36:37;;;;;;;;;75.75;62.25;10.40;48.30;;;;;;5074392;28;8837;-56
2021/10/25 04:39:09;;;;;;;;;80.00;65.25;10.40;48.30;;;;;;5078215;28;8803;-56
2021/10/25 04:41:40;;;;;;;;;81.50;67.50;10.40;48.30;;;;;;5067255;28;8835;-56
2021/10/25 04:44:08;;;;;;;;;83.50;66.25;10.50;48.40;;;;;;5085552;28;8787;-52
2021/10/25 04:46:38;;;;;;;;;67.00;56.50;10.40;48.50;;;;;;5085269;28;8787;-55
2021/10/25 04:49:04;;;;;;;;;80.00;65.50;10.40;48.50;;;;;;5081339;28;8805;-56
2021/10/25 04:51:33;;;;;;;;;80.75;65.00;10.30;48.70;;;;;;5077810;28;8798;-55
2021/10/25 04:53:59;;;;;;;;;73.00;61.00;10.30;49.00;;;;;;5084038;28;8809;-54
2021/10/25 04:56:25;;;;;;;;;75.00;61.00;10.40;48.60;;;;;;5079156;28;8809;-55
2021/10/25 04:58:51;;;;;;;;;69.00;58.00;10.30;48.50;;;;;;5078460;28;8812;-57
2021/10/25 05:01:17;;;;;;;;;66.50;56.25;10.30;48.20;;;;;;5090175;28;8774;-55
2021/10/25 05:03:43;;;;;;;;;73.25;60.75;10.30;48.90;;;;;;5077948;28;8786;-54
2021/10/25 05:06:15;;;;;;;;;77.25;63.75;10.40;47.80;;;;;;5055669;28;9539;-56
2021/10/25 05:08:41;;;;;;;;;77.00;63.25;10.40;47.60;;;;;;5074241;28;8765;-54
2021/10/25 05:11:08;;;;;;;;;78.75;64.75;10.40;47.60;;;;;;5056124;28;8893;-52
2021/10/25 05:13:33;;;;;;;;;82.75;67.50;10.40;47.60;;;;;;5073990;28;8757;-55
2021/10/25 05:15:59;;;;;;;;;79.00;65.00;10.40;47.50;;;;;;5074164;28;8789;-53
2021/10/25 05:18:25;;;;;;;;;80.50;67.00;10.30;47.70;;;;;;5073860;28;8813;-55
2021/10/25 05:20:51;;;;;;;;;84.00;70.00;10.40;47.60;;;;;;5073965;28;8786;-56
2021/10/25 05:23:17;;;;;;;;;90.00;76.25;10.30;47.60;;;;;;5074015;28;8808;-52
2021/10/25 05:25:42;;;;;;;;;81.25;66.75;10.40;47.60;;;;;;5074030;28;8761;-53
2021/10/25 05:28:08;;;;;;;;;80.00;66.75;10.40;47.60;;;;;;5073978;28;8778;-53
2021/10/25 05:30:34;;;;;;;;;81.25;65.25;10.40;47.50;;;;;;5074765;28;8827;-52
2021/10/25 05:33:00;;;;;;;;;82.00;67.00;10.40;47.40;;;;;;5078048;28;8776;-53
2021/10/25 05:35:26;;;;;;;;;78.75;63.50;10.40;47.40;;;;;;5077770;28;8802;-52
2021/10/25 05:37:52;;;;;;;;;81.00;66.00;10.50;47.40;;;;;;5077435;28;8864;-52
2021/10/25 05:40:18;;;;;;;;;82.00;67.50;10.50;47.40;;;;;;5059955;28;9436;-51
2021/10/25 05:42:43;;;;;;;;;94.75;85.75;10.40;47.30;;;;;;5077495;28;8784;-53
2021/10/25 05:45:09;;;;;;;;;104.25;102.25;10.40;47.50;;;;;;5077486;28;8882;-51
2021/10/25 05:47:35;;;;;;;;;99.75;93.75;10.40;47.60;;;;;;5077566;28;8788;-53
2021/10/25 05:50:01;;;;;;;;;94.75;86.75;10.40;47.70;;;;;;5077726;28;8782;-55
2021/10/25 05:52:27;;;;;;;;;99.50;95.75;10.40;47.70;;;;;;5077667;28;8801;-52
2021/10/25 05:54:54;;;;;;;;;90.75;81.00;10.50;47.80;;;;;;5077444;28;8774;-51
2021/10/25 05:57:20;;;;;;;;;94.75;84.00;10.50;47.90;;;;;;5077290;28;8782;-52
2021/10/25 05:59:47;;;;;;;;;101.50;98.25;10.50;48.10;;;;;;5077694;28;8807;-55
2021/10/25 06:04:48;;;;;;;;;100.75;95.25;10.60;48.00;;;;;;5077369;28;9469;-56
2021/10/25 06:07:14;;;;;;;;;101.50;89.25;10.60;48.00;;;;;;5077655;28;8896;-55
2021/10/25 06:09:40;;;;;;;;;102.75;96.00;10.60;48.00;;;;;;5076611;28;8809;-55
2021/10/25 06:12:14;;;;;;;;;101.00;99.50;10.60;48.20;;;;;;5077073;28;8794;-56
2021/10/25 06:14:43;;;;;;;;;96.25;89.25;10.60;48.00;;;;;;5077076;28;8762;-57
2021/10/25 06:19:43;;;;;;;;;91.25;80.50;10.70;47.80;;;;;;5077311;28;8776;-56
2021/10/25 06:22:10;;;;;;;;;89.25;76.50;10.80;47.90;;;;;;5077045;28;8773;-56
2021/10/25 06:24:36;;;;;;;;;91.00;78.00;10.80;47.70;;;;;;5076359;28;8769;-56
2021/10/25 06:27:02;;;;;;;;;90.00;80.25;10.60;47.90;;;;;;5076766;28;8778;-56
2021/10/25 06:29:27;;;;;;;;;83.25;70.75;10.70;48.20;;;;;;5076805;28;8753;-57
2021/10/25 06:31:53;;;;;;;;;86.00;74.75;10.90;48.10;;;;;;5076662;28;8847;-57
2021/10/25 06:34:21;;;;;;;;;84.50;70.25;10.80;47.90;;;;;;5076712;28;8777;-59
2021/10/25 06:36:49;;;;;;;;;86.25;72.25;10.90;48.00;;;;;;5076626;28;8944;-57
2021/10/25 06:39:22;;;;;;;;;88.00;74.25;11.00;48.00;;;;;;5075993;28;8794;-56
2021/10/25 06:41:48;;;;;;;;;80.50;65.25;11.00;47.90;;;;;;5076564;28;9518;-55
2021/10/25 06:44:14;;;;;;;;;86.00;74.25;11.10;48.00;;;;;;5076418;28;9443;-59
2021/10/25 06:46:43;;;;;;;;;89.25;78.00;11.00;48.40;;;;;;5076564;28;8789;-58
2021/10/25 06:49:09;;;;;;;;;90.00;79.75;11.00;49.00;;;;;;5076456;28;8897;-57
2021/10/25 06:51:35;;;;;;;;;80.25;66.00;11.20;48.80;;;;;;5085449;28;8874;-58
2021/10/25 06:54:02;;;;;;;;;81.00;67.75;11.20;48.90;;;;;;5095368;28;8792;-58
2021/10/25 06:56:28;;;;;;;;;78.50;64.75;11.30;48.80;;;;;;5092691;28;8859;-60
2021/10/25 06:58:54;;;;;;;;;75.50;62.25;11.30;49.20;;;;;;5095063;28;8976;-57
2021/10/25 07:01:22;;;;;;;;;75.75;62.50;11.40;48.60;;;;;;5095085;28;8748;-72
2021/10/25 07:03:48;;;;;;;;;78.75;64.00;11.30;48.70;;;;;;5095035;28;8748;-57
2021/10/25 07:06:17;;;;;;;;;75.25;61.75;11.50;49.00;;;;;;5095009;28;8787;-57
2021/10/25 07:08:45;;;;;;;;;78.25;64.25;11.60;48.50;;;;;;5094959;28;8775;-58
2021/10/25 07:11:14;;;;;;;;;77.00;63.75;11.80;48.50;;;;;;5074485;28;9142;-68
2021/10/25 07:13:45;;;;;;;;;71.75;59.75;11.90;48.10;;;;;;5095285;28;8850;-56
2021/10/25 07:16:24;;;;;;;;;77.00;63.25;12.00;47.80;;;;;;5096152;28;8807;-59
2021/10/25 07:21:40;;;;;;;;;75.50;61.75;11.90;48.10;;;;;;5096115;28;8752;-60
2021/10/25 08:02:45;;;;;;;;;94.25;88.25;12.60;47.30;;;;;;5095142;28;8790;-61
2021/10/25 08:07:44;;;;;;;;;68.75;57.00;12.80;46.80;;;;;;5095427;28;8786;-63
2021/10/25 08:10:21;;;;;;;;;71.50;58.75;12.80;46.50;;;;;;5095365;28;8783;-62
2021/10/25 08:12:52;;;;;;;;;71.25;58.75;12.90;46.90;;;;;;5094486;28;8775;-64
2021/10/25 08:15:34;;;;;;;;;77.00;63.00;13.00;46.90;;;;;;5093701;28;8779;-63
2021/10/25 08:18:02;;;;;;;;;71.00;58.50;13.30;46.40;;;;;;5092176;28;8806;-65
2021/10/25 08:20:28;;;;;;;;;65.50;54.25;13.30;46.50;;;;;;5093722;28;8768;-64
2021/10/25 08:22:54;;;;;;;;;70.00;56.75;13.40;46.00;;;;;;5094186;28;8792;-62
2021/10/25 08:25:21;;;;;;;;;69.50;57.25;13.50;45.70;;;;;;5094907;28;8756;-66
2021/10/25 08:27:47;;;;;;;;;67.75;56.25;13.70;45.70;;;;;;5094841;28;8764;-67
2021/10/25 08:30:17;;;;;;;;;67.50;56.00;13.80;45.40;;;;;;5094527;28;8843;-64
2021/10/25 08:40:45;;;;;;;;;64.50;54.00;14.00;44.80;;;;;;5094656;28;8739;-61
2021/10/25 08:43:13;;;;;;;;;64.75;54.50;13.80;45.00;;;;;;5094513;28;8881;-62
2021/10/25 08:45:39;;;;;;;;;68.50;56.00;14.10;45.80;;;;;;5094683;28;9397;-62
2021/10/25 08:48:05;;;;;;;;;62.25;52.25;14.20;45.10;;;;;;5094817;28;8763;-62
2021/10/25 08:50:34;;;;;;;;;64.00;53.00;14.30;44.90;;;;;;5094548;28;8768;-65
2021/10/25 08:53:02;;;;;;;;;68.25;55.25;14.40;45.10;;;;;;5094591;28;8768;-64
2021/10/25 08:55:28;;;;;;;;;58.50;49.50;14.60;44.90;;;;;;5094568;28;8779;-64
2021/10/25 08:57:55;;;;;;;;;66.25;55.00;14.70;43.80;;;;;;5094652;28;8823;-66
2021/10/25 09:00:23;;;;;;;;;61.75;52.00;14.70;43.80;;;;;;5094799;28;8759;-62
2021/10/25 09:03:00;;;;;;;;;61.75;52.00;14.80;44.00;;;;;;5094445;28;8771;-63
2021/10/25 09:05:27;;;;;;;;;63.25;52.75;14.90;43.90;;;;;;5095281;28;8795;-61
2021/10/25 09:07:55;;;;;;;;;66.75;55.00;15.00;43.70;;;;;;5098668;28;8886;-60
2021/10/25 09:10:41;;;;;;;;;65.25;54.25;15.20;43.60;;;;;;5098794;28;8799;-62
2021/10/25 09:13:11;;;;;;;;;59.00;50.25;15.20;43.30;;;;;;5098228;28;8776;-63
2021/10/25 09:15:39;;;;;;;;;58.00;49.25;15.30;42.80;;;;;;5098296;28;8775;-63
2021/10/25 09:18:13;;;;;;;;;52.50;44.75;15.50;42.70;;;;;;5098582;28;8891;-63
2021/10/25 09:20:43;;;;;;;;;55.00;46.75;15.50;42.60;;;;;;5098348;28;8759;-63
2021/10/25 09:23:10;;;;;;;;;57.25;47.25;15.70;42.40;;;;;;5098367;28;8751;-64
2021/10/25 09:25:37;;;;;;;;;50.00;43.00;16.00;42.80;;;;;;5098526;28;8752;-63
2021/10/25 09:28:20;;;;;;;;;54.75;47.00;15.90;41.30;;;;;;5098453;28;8764;-64
2021/10/25 09:30:49;;;;;;;;;49.50;42.50;16.00;42.20;;;;;;5098255;28;8739;-64
2021/10/25 09:33:20;;;;;;;;;54.00;46.00;16.20;41.50;;;;;;5098035;28;8763;-64
2021/10/25 09:35:52;;;;;;;;;47.00;41.00;16.30;40.90;;;;;;5098031;28;8806;-64
2021/10/25 09:38:25;;;;;;;;;52.25;45.00;16.30;40.60;;;;;;5097761;28;8843;-63
2021/10/25 09:49:08;;;;;;;;;38.00;35.75;16.90;40.40;;;;;;5026309;28;8794;-63
2021/10/25 09:51:38;;;;;;;;;49.00;41.75;16.90;39.90;;;;;;5077757;28;9470;-63
2021/10/25 09:54:04;;;;;;;;;42.50;38.25;17.10;39.50;;;;;;5077675;28;8851;-60
2021/10/25 09:56:33;;;;;;;;;42.50;37.50;17.20;39.40;;;;;;5077756;28;8868;-60
2021/10/25 10:01:42;;;;;;;;;36.33;34.67;17.70;37.70;;;;;;5077420;28;9494;-62
2021/10/25 10:04:09;;;;;;;;;42.50;37.50;18.10;37.40;;;;;;5077275;28;8770;-71
2021/10/25 10:06:36;;;;;;;;;36.33;34.00;18.60;36.50;;;;;;5077378;28;8790;-69
2021/10/25 10:09:03;;;;;;;;;37.67;34.33;18.80;35.00;;;;;;5077482;28;9451;-65
2021/10/25 10:11:29;;;;;;;;;39.00;36.00;19.20;35.50;;;;;;5077149;28;8900;-65
2021/10/25 10:13:56;;;;;;;;;40.33;36.00;19.40;33.60;;;;;;5076525;28;8781;-62
2021/10/25 10:16:24;;;;;;;;;38.67;35.33;19.70;33.40;;;;;;5076916;28;8813;-60
2021/10/25 10:18:56;;;;;;;;;30.33;29.33;20.20;32.70;;;;;;5076005;28;9502;-60
2021/10/25 10:21:23;;;;;;;;;31.00;30.33;20.70;32.70;;;;;;5076979;28;8808;-60
2021/10/25 10:23:58;;;;;;;;;34.33;33.33;21.20;31.00;;;;;;5076950;28;8784;-57
2021/10/25 10:26:31;;;;;;;;;26.33;26.33;21.70;29.40;;;;;;5077124;28;9506;-57
2021/10/25 10:29:16;;;;;;;;;18.67;18.67;22.30;27.80;;;;;;5076426;28;8788;-58
2021/10/25 10:31:43;;;;;;;;;23.00;23.00;23.50;27.40;;;;;;5076781;28;8889;-58
2021/10/25 10:34:17;;;;;;;;;31.00;30.00;24.30;27.20;;;;;;5076513;28;8777;-56
2021/10/25 10:37:16;;;;;;;;;27.67;27.33;24.40;25.90;;;;;;5076599;28;9527;-60
2021/10/25 10:39:43;;;;;;;;;25.00;25.00;24.00;25.90;;;;;;4994897;28;8778;-60
2021/10/25 10:42:10;;;;;;;;;28.00;28.00;23.80;26.50;;;;;;4995090;28;8783;-60
2021/10/25 10:44:35;;;;;;;;;29.67;29.67;24.10;26.20;;;;;;4994864;28;9504;-60
2021/10/25 10:47:11;;;;;;;;;22.33;22.33;24.20;26.40;;;;;;4994754;28;8797;-60
2021/10/25 10:49:42;;;;;;;;;18.33;18.33;24.40;26.00;;;;;;4994893;28;8786;-60
2021/10/25 10:55:09;;;;;;;;;28.33;28.33;24.10;26.20;;;;;;5001003;28;8862;-59
2021/10/25 11:00:24;;;;;;;;;29.67;29.67;24.30;27.20;;;;;;5005184;28;8795;-59
2021/10/25 11:02:58;;;;;;;;;26.33;26.33;24.50;26.20;;;;;;5012157;28;8776;-59
2021/10/25 11:05:38;;;;;;;;;28.00;28.00;25.10;25.80;;;;;;5014184;28;8780;-58
2021/10/25 11:08:17;;;;;;;;;32.33;31.67;25.00;25.20;;;;;;5014172;28;8769;-59
2021/10/25 11:10:46;;;;;;;;;25.33;25.33;25.20;26.00;;;;;;5007571;28;8807;-60
2021/10/25 11:13:21;;;;;;;;;34.33;33.33;25.70;24.90;;;;;;5012626;28;9500;-58
2021/10/25 11:16:07;;;;;;;;;29.33;29.00;26.10;24.70;;;;;;5050136;28;8769;-58
2021/10/25 11:18:36;;;;;;;;;29.67;29.67;26.00;24.60;;;;;;5085162;28;9703;-59
2021/10/25 11:21:25;;;;;;;;;21.67;21.67;26.00;24.50;;;;;;5096196;28;8768;-59
2021/10/25 11:23:57;;;;;;;;;25.00;25.00;26.70;24.10;;;;;;5096175;28;8748;-59
2021/10/25 11:26:24;;;;;;;;;22.33;22.33;27.00;23.50;;;;;;5095754;28;8845;-59
2021/10/25 11:29:05;;;;;;;;;24.00;24.00;27.10;23.80;;;;;;5095372;28;8786;-59
2021/10/25 11:31:34;;;;;;;;;21.33;21.33;27.60;23.00;;;;;;5095147;28;8776;-60
2021/10/25 11:34:02;;;;;;;;;22.33;22.33;28.10;23.20;;;;;;5095636;28;8756;-59
2021/10/25 11:36:30;;;;;;;;;24.67;24.67;28.30;22.60;;;;;;5094216;28;8827;-59
2021/10/25 11:38:58;;;;;;;;;22.67;22.67;28.70;22.20;;;;;;5084494;28;8803;-59
2021/10/25 11:41:24;;;;;;;;;26.00;26.00;29.20;22.10;;;;;;5086093;28;8802;-59
2021/10/25 11:43:51;;;;;;;;;22.33;22.33;28.90;21.70;;;;;;5077524;28;9525;-59
2021/10/25 11:46:19;;;;;;;;;24.33;24.33;28.80;21.50;;;;;;5095796;28;8903;-60
2021/10/25 11:48:59;;;;;;;;;22.00;21.67;28.70;21.40;;;;;;5095519;28;8768;-59
2021/10/25 11:51:26;;;;;;;;;22.00;21.67;29.00;21.30;;;;;;5079744;28;11436;-60
2021/10/25 11:53:56;;;;;;;;;21.67;21.67;29.20;21.10;;;;;;5085906;28;11596;-61
2021/10/25 11:56:22;;;;;;;;;22.67;22.67;30.00;21.00;;;;;;5090183;28;11480;-59
2021/10/25 11:58:49;;;;;;;;;21.33;20.67;29.70;21.00;;;;;;5091915;28;11493;-57
2021/10/25 12:01:15;;;;;;;;;20.33;20.33;30.00;20.60;;;;;;5083549;28;11573;-59
2021/10/25 12:03:41;;;;;;;;;19.67;19.67;30.00;20.90;;;;;;5074788;28;11481;-59
2021/10/25 12:06:19;;;;;;;;;25.00;25.00;30.50;20.20;;;;;;5084427;28;11661;-59
2021/10/25 12:08:59;;;;;;;;;23.67;23.67;30.80;20.00;;;;;;5074989;28;11460;-59
2021/10/25 12:11:36;;;;;;;;;24.67;24.67;31.20;20.40;;;;;;5075292;28;8801;-68
2021/10/25 12:14:02;;;;;;;;;29.33;29.33;32.20;20.00;;;;;;5082261;28;9468;-59
2021/10/25 12:16:28;;;;;;;;;25.33;25.33;32.20;19.20;;;;;;5085595;28;8855;-59
2021/10/25 12:18:54;;;;;;;;;24.00;24.00;32.50;19.10;;;;;;5086690;28;8803;-59
2021/10/25 12:21:30;;;;;;;;;24.33;24.33;32.90;18.80;;;;;;5093863;28;8763;-60
2021/10/25 12:23:56;;;;;;;;;21.67;21.67;32.30;18.80;;;;;;5083606;28;8764;-61
2021/10/25 12:26:21;;;;;;;;;26.33;26.33;32.10;18.80;;;;;;5091951;28;8779;-61
2021/10/25 12:28:47;;;;;;;;;23.00;23.00;32.50;18.90;;;;;;5091089;28;8793;-62
2021/10/25 12:31:15;;;;;;;;;22.33;22.33;32.40;19.10;;;;;;5094895;28;8771;-61
2021/10/25 12:33:45;;;;;;;;;18.67;18.67;32.70;18.50;;;;;;5092745;28;8771;-60
2021/10/25 12:36:22;;;;;;;;;26.67;26.67;32.50;18.30;;;;;;5083732;28;11508;-62
2021/10/25 12:38:51;;;;;;;;;25.00;25.00;32.30;18.40;;;;;;5084280;28;11581;-60
2021/10/25 12:41:17;;;;;;;;;21.33;21.33;32.50;19.00;;;;;;5081771;28;11601;-61
2021/10/25 12:43:50;;;;;;;;;21.67;21.67;32.40;18.40;;;;;;5086265;28;11575;-61
2021/10/25 12:46:21;;;;;;;;;25.67;25.67;32.40;18.50;;;;;;5080619;28;8763;-61
2021/10/25 12:48:56;;;;;;;;;18.50;18.50;32.60;18.50;;;;;;5091886;28;11483;-62
2021/10/25 12:51:32;;;;;;;;;18.25;18.25;32.80;18.30;;;;;;5082740;28;11501;-61
2021/10/25 12:54:07;;;;;;;;;21.25;21.25;33.30;18.20;;;;;;5078375;28;11460;-60
2021/10/25 12:56:33;;;;;;;;;23.33;23.33;33.50;18.00;;;;;;5076935;28;11467;-59
2021/10/25 12:59:06;;;;;;;;;25.67;25.67;33.40;18.10;;;;;;5087285;28;11494;-59
2021/10/25 13:01:32;;;;;;;;;21.00;21.00;33.60;17.70;;;;;;5085682;28;8915;-61
2021/10/25 13:04:00;;;;;;;;;24.00;24.00;33.50;17.90;;;;;;5079967;28;11444;-60
2021/10/25 13:06:29;;;;;;;;;26.33;26.33;33.30;17.90;;;;;;5084038;28;12128;-60
2021/10/25 13:09:06;;;;;;;;;23.00;23.00;33.70;17.80;;;;;;5085063;28;11446;-60
2021/10/25 13:11:32;;;;;;;;;23.33;23.33;33.80;17.70;;;;;;5080149;28;11567;-60
2021/10/25 13:13:58;;;;;;;;;23.00;22.00;33.40;17.30;;;;;;5081512;28;11456;-62
2021/10/25 13:16:31;;;;;;;;;12.33;12.33;33.40;17.50;;;;;;5094116;28;11537;-60
2021/10/25 13:18:58;;;;;;;;;24.00;24.00;33.00;17.30;;;;;;5074934;28;11479;-58
2021/10/25 13:21:24;;;;;;;;;21.33;21.33;32.60;18.00;;;;;;5080584;28;11470;-60
2021/10/25 13:23:50;;;;;;;;;21.00;21.00;32.20;17.90;;;;;;5094272;28;12214;-60
2021/10/25 13:26:16;;;;;;;;;19.67;19.67;32.20;18.20;;;;;;5085694;28;11651;-61
2021/10/25 13:28:42;;;;;;;;;24.00;24.00;32.20;17.80;;;;;;5076337;28;8969;-58
2021/10/25 13:31:09;;;;;;;;;23.00;21.67;32.00;18.20;;;;;;5086174;28;11571;-56
2021/10/25 13:33:35;;;;;;;;;21.33;21.33;31.70;18.30;;;;;;5076117;28;8776;-57
2021/10/25 13:36:02;;;;;;;;;19.67;19.67;30.90;18.50;;;;;;5093585;28;11499;-61
2021/10/25 13:38:28;;;;;;;;;25.00;25.00;30.60;18.90;;;;;;5093888;28;11465;-60
2021/10/25 13:40:54;;;;;;;;;31.00;31.00;30.50;19.10;;;;;;5093926;28;11502;-61
2021/10/25 13:43:20;;;;;;;;;20.33;19.67;30.70;19.40;;;;;;5094039;28;8808;-62
2021/10/25 13:45:47;;;;;;;;;23.00;23.00;30.10;19.50;;;;;;5082929;28;8791;-58
2021/10/25 13:48:14;;;;;;;;;20.00;20.00;29.80;19.50;;;;;;5082989;28;8880;-60
2021/10/25 13:50:41;;;;;;;;;22.33;22.33;29.90;20.00;;;;;;5076757;28;12250;-60
2021/10/25 13:53:07;;;;;;;;;20.00;19.33;29.30;19.80;;;;;;5088613;28;11461;-62
2021/10/25 13:55:33;;;;;;;;;29.00;29.00;28.90;20.10;;;;;;5079905;28;11610;-61
2021/10/25 13:57:59;;;;;;;;;26.00;26.00;28.40;20.70;;;;;;5084098;28;8967;-61
2021/10/25 14:00:25;;;;;;;;;30.33;30.33;28.10;21.50;;;;;;5096294;28;8792;-60
2021/10/25 14:02:54;;;;;;;;;33.67;32.67;27.90;21.30;;;;;;5085772;28;8801;-60
2021/10/25 14:05:20;;;;;;;;;32.00;30.33;27.40;21.40;;;;;;5088924;28;8768;-60
2021/10/25 14:07:47;;;;;;;;;27.67;27.67;27.20;22.10;;;;;;5091239;28;8874;-60
2021/10/25 14:12:45;;;;;;;;;24.00;24.00;26.70;21.90;;;;;;5097416;28;8772;-60
2021/10/25 14:17:41;;;;;;;;;35.67;33.67;26.40;22.60;;;;;;5079663;28;8814;-61
2021/10/25 14:20:07;;;;;;;;;38.00;34.00;26.00;22.60;;;;;;5076855;28;9384;-62
2021/10/25 14:22:33;;;;;;;;;35.33;33.67;25.50;23.00;;;;;;5076975;28;8758;-61
2021/10/25 14:24:59;;;;;;;;;31.67;31.67;25.20;23.10;;;;;;5076806;28;8864;-61
2021/10/25 14:27:26;;;;;;;;;32.00;31.00;25.00;23.20;;;;;;5077092;28;8782;-60
2021/10/25 14:29:52;;;;;;;;;32.67;32.33;25.00;23.90;;;;;;5076795;28;8779;-62